createdAt,value
2019-02-21T00:00:28.240Z,5.83
2019-02-21T00:02:58.896Z,5.87
2019-02-21T00:05:29.776Z,5.50
2019-02-21T00:08:00.125Z,5.30
2019-02-21T00:10:30.588Z,7.08
2019-02-21T00:13:01.751Z,5.92
2019-02-21T00:15:32.143Z,5.75
2019-02-21T00:18:02.836Z,6.35
2019-02-21T00:20:33.521Z,5.80
2019-02-21T00:23:04.125Z,6.47
2019-02-21T00:25:34.777Z,6.37
2019-02-21T00:28:05.385Z,6.10
2019-02-21T00:30:35.743Z,5.83
2019-02-21T00:33:06.723Z,6.12
2019-02-21T00:35:37.454Z,6.72
2019-02-21T00:38:07.803Z,6.17
2019-02-21T00:40:38.432Z,6.65
2019-02-21T00:43:08.778Z,6.15
2019-02-21T00:45:39.121Z,6.37
2019-02-21T00:48:09.781Z,5.83
2019-02-21T00:50:40.931Z,6.47
2019-02-21T00:53:11.575Z,6.75
2019-02-21T00:55:42.176Z,6.30
2019-02-21T00:58:12.816Z,6.85
2019-02-21T01:00:46.617Z,6.55
2019-02-21T01:03:15.556Z,7.15
2019-02-21T01:05:46.245Z,7.15
2019-02-21T01:08:16.639Z,7.50
2019-02-21T01:10:47.020Z,7.50
2019-02-21T01:13:17.641Z,6.67
2019-02-21T01:15:48.071Z,7.10
2019-02-21T01:18:19.089Z,7.70
2019-02-21T01:20:49.747Z,7.65
2019-02-21T01:23:20.366Z,7.60
2019-02-21T01:25:50.740Z,6.90
2019-02-21T01:28:21.065Z,7.40
2019-02-21T01:30:56.996Z,7.75
2019-02-21T01:33:23.761Z,7.47
2019-02-21T01:35:54.611Z,8.28
2019-02-21T01:38:24.956Z,7.03
2019-02-21T01:40:55.562Z,7.45
2019-02-21T01:43:26.067Z,7.60
2019-02-21T01:45:56.970Z,7.87
2019-02-21T01:48:29.559Z,7.03
2019-02-21T01:51:00.049Z,7.72
2019-02-21T01:53:30.666Z,7.28
2019-02-21T01:56:01.044Z,8.08
2019-02-21T01:58:31.431Z,8.30
2019-02-21T02:01:08.625Z,7.53
2019-02-21T02:03:35.146Z,8.00
2019-02-21T02:06:05.598Z,7.72
2019-02-21T02:08:35.945Z,8.28
2019-02-21T02:11:06.347Z,8.10
2019-02-21T02:13:36.999Z,9.05
2019-02-21T02:16:07.375Z,8.25
2019-02-21T02:18:38.232Z,8.85
2019-02-21T02:21:08.739Z,9.00
2019-02-21T02:23:39.069Z,8.43
2019-02-21T02:26:09.451Z,9.58
2019-02-21T02:28:39.772Z,8.85
2019-02-21T02:31:21.874Z,8.95
2019-02-21T02:33:43.047Z,7.90
2019-02-21T02:36:13.919Z,9.03
2019-02-21T02:38:44.614Z,8.95
2019-02-21T02:41:14.940Z,9.50
2019-02-21T02:43:45.645Z,8.13
2019-02-21T02:46:15.987Z,9.70
2019-02-21T02:48:46.676Z,9.30
2019-02-21T02:51:16.986Z,9.03
2019-02-21T02:53:47.643Z,9.45
2019-02-21T02:56:18.262Z,8.40
2019-02-21T02:58:49.120Z,9.05
2019-02-21T03:01:19.469Z,9.58
2019-02-21T03:03:50.083Z,9.60
2019-02-21T03:06:20.988Z,11.45
2019-02-21T03:08:51.649Z,10.43
2019-02-21T03:11:21.984Z,11.55
2019-02-21T03:13:52.351Z,11.57
2019-02-21T03:16:22.983Z,10.90
2019-02-21T03:18:54.303Z,11.57
2019-02-21T03:21:24.713Z,11.73
2019-02-21T03:23:55.622Z,12.68
2019-02-21T03:26:26.276Z,11.12
2019-02-21T03:28:56.681Z,11.50
2019-02-21T03:31:27.398Z,11.65
2019-02-21T03:33:57.726Z,11.88
2019-02-21T03:36:28.600Z,11.97
2019-02-21T03:38:58.905Z,12.50
2019-02-21T03:41:29.550Z,12.75
2019-02-21T03:44:00.453Z,13.00
2019-02-21T03:46:30.808Z,11.97
2019-02-21T03:49:01.468Z,13.05
2019-02-21T03:51:31.801Z,11.97
2019-02-21T03:54:03.217Z,14.13
2019-02-21T03:56:33.843Z,14.58
2019-02-21T03:59:04.505Z,13.98
2019-02-21T04:01:35.225Z,13.53
2019-02-21T04:04:05.709Z,14.78
2019-02-21T04:06:36.293Z,13.95
2019-02-21T04:09:08.872Z,13.48
2019-02-21T04:11:39.211Z,13.88
2019-02-21T04:14:10.291Z,13.00
2019-02-21T04:16:40.915Z,14.07
2019-02-21T04:19:11.291Z,13.80
2019-02-21T04:21:42.398Z,15.23
2019-02-21T04:24:12.757Z,15.55
2019-02-21T04:26:43.459Z,14.23
2019-02-21T04:29:14.339Z,16.73
2019-02-21T04:31:44.749Z,16.17
2019-02-21T04:34:15.105Z,16.17
2019-02-21T04:36:45.836Z,15.32
2019-02-21T04:39:16.601Z,15.63
2019-02-21T04:41:47.234Z,16.93
2019-02-21T04:44:17.592Z,16.65
2019-02-21T04:46:47.930Z,16.97
2019-02-21T04:49:18.818Z,16.95
2019-02-21T04:51:49.545Z,17.50
2019-02-21T04:54:20.333Z,16.25
2019-02-21T04:56:50.648Z,16.75
2019-02-21T04:59:21.252Z,17.60
2019-02-21T05:01:51.906Z,17.90
2019-02-21T05:04:22.265Z,18.67
2019-02-21T05:06:53.172Z,19.15
2019-02-21T05:09:23.785Z,19.27
2019-02-21T05:11:54.427Z,20.10
2019-02-21T05:14:25.053Z,18.60
2019-02-21T05:16:55.460Z,17.52
2019-02-21T05:19:26.656Z,18.35
2019-02-21T05:21:57.020Z,18.20
2019-02-21T05:24:27.690Z,19.92
2019-02-21T05:27:02.587Z,19.35
2019-02-21T05:29:32.940Z,20.02
2019-02-21T05:32:14.002Z,19.95
2019-02-21T05:34:51.974Z,20.00
2019-02-21T05:37:29.634Z,19.30
2019-02-21T05:40:13.367Z,20.65
2019-02-21T05:42:51.154Z,20.80
2019-02-21T05:45:28.946Z,21.27
2019-02-21T05:48:03.674Z,21.65
2019-02-21T05:50:53.828Z,20.55
2019-02-21T05:53:28.815Z,20.45
2019-02-21T05:56:18.915Z,23.38
2019-02-21T05:58:51.324Z,21.23
2019-02-21T06:01:39.507Z,21.73
2019-02-21T06:04:14.469Z,22.48
2019-02-21T06:06:49.188Z,26.00
2019-02-21T06:09:24.288Z,23.57
2019-02-21T06:11:59.544Z,23.70
2019-02-21T06:14:44.778Z,22.40
2019-02-21T06:17:16.858Z,23.05
2019-02-21T06:19:55.065Z,23.22
2019-02-21T06:22:27.152Z,22.75
2019-02-21T06:25:01.850Z,22.90
2019-02-21T06:27:39.926Z,21.77
2019-02-21T06:30:12.206Z,24.23
2019-02-21T06:32:42.837Z,23.77
2019-02-21T06:35:13.265Z,22.60
2019-02-21T06:37:43.879Z,22.82
2019-02-21T06:40:14.234Z,22.80
2019-02-21T06:42:44.593Z,22.45
2019-02-21T06:45:18.027Z,22.52
2019-02-21T06:47:47.417Z,25.10
2019-02-21T06:50:26.464Z,22.42
2019-02-21T06:52:49.867Z,24.18
2019-02-21T06:55:20.682Z,23.10
2019-02-21T06:57:51.362Z,23.10
2019-02-21T07:00:22.246Z,22.67
2019-02-21T07:02:54.339Z,25.65
2019-02-21T07:05:24.855Z,24.85
2019-02-21T07:07:55.500Z,25.92
2019-02-21T07:10:25.877Z,25.48
2019-02-21T07:12:56.524Z,24.15
2019-02-21T07:15:26.857Z,25.15
2019-02-21T07:17:57.789Z,22.70
2019-02-21T07:20:28.510Z,23.65
2019-02-21T07:22:58.843Z,25.75
2019-02-21T07:25:32.431Z,27.15
2019-02-21T07:28:11.274Z,23.32
2019-02-21T07:30:35.742Z,24.10
2019-02-21T07:33:06.100Z,24.10
2019-02-21T07:35:36.963Z,27.17
2019-02-21T07:38:07.325Z,23.47
2019-02-21T07:40:37.941Z,25.10
2019-02-21T07:43:08.323Z,22.65
2019-02-21T07:45:38.969Z,23.05
2019-02-21T07:48:09.330Z,23.10
2019-02-21T07:50:40.091Z,23.45
2019-02-21T07:53:10.763Z,22.13
2019-02-21T07:55:41.393Z,24.30
2019-02-21T07:58:12.062Z,23.30
2019-02-21T08:00:42.644Z,23.38
2019-02-21T08:03:13.302Z,24.50
2019-02-21T08:05:43.962Z,23.25
2019-02-21T08:08:14.620Z,22.60
2019-02-21T08:10:45.212Z,23.27
2019-02-21T08:13:15.894Z,22.37
2019-02-21T08:15:46.514Z,23.30
2019-02-21T08:18:17.116Z,22.67
2019-02-21T08:20:47.826Z,22.10
2019-02-21T08:23:18.454Z,22.35
2019-02-21T08:25:49.123Z,25.10
2019-02-21T08:28:19.772Z,22.32
2019-02-21T08:30:50.636Z,23.18
2019-02-21T08:33:31.377Z,23.27
2019-02-21T08:36:02.271Z,23.25
2019-02-21T08:38:32.886Z,23.50
2019-02-21T08:41:03.591Z,24.55
2019-02-21T08:43:34.227Z,23.40
2019-02-21T08:46:04.587Z,23.55
2019-02-21T08:48:35.309Z,24.07
2019-02-21T08:51:06.345Z,24.37
2019-02-21T08:53:37.113Z,25.25
2019-02-21T08:56:07.826Z,24.02
2019-02-21T08:58:38.174Z,23.87
2019-02-21T09:01:08.561Z,25.80
2019-02-21T09:03:38.898Z,25.12
2019-02-21T09:06:09.546Z,24.25
2019-02-21T09:08:39.935Z,24.47
2019-02-21T09:11:10.265Z,24.92
2019-02-21T09:13:41.761Z,26.93
2019-02-21T09:16:13.196Z,24.92
2019-02-21T09:18:43.909Z,25.23
2019-02-21T09:21:14.541Z,24.32
2019-02-21T09:23:45.221Z,24.87
2019-02-21T09:26:15.578Z,26.75
2019-02-21T09:28:45.969Z,24.25
2019-02-21T09:31:16.477Z,25.53
2019-02-21T09:33:47.130Z,24.18
2019-02-21T09:36:17.784Z,24.25
2019-02-21T09:38:48.216Z,23.62
2019-02-21T09:41:18.658Z,25.25
2019-02-21T09:43:51.081Z,25.02
2019-02-21T09:46:21.395Z,23.77
2019-02-21T09:48:51.729Z,24.02
2019-02-21T09:51:22.352Z,24.12
2019-02-21T09:53:53.024Z,22.75
2019-02-21T09:56:30.299Z,23.00
2019-02-21T09:58:56.127Z,24.18
2019-02-21T10:01:26.800Z,22.97
2019-02-21T10:03:57.461Z,21.70
2019-02-21T10:06:28.441Z,23.23
2019-02-21T10:08:59.086Z,24.40
2019-02-21T10:11:29.689Z,24.00
2019-02-21T10:14:00.350Z,25.50
2019-02-21T10:16:30.705Z,23.67
2019-02-21T10:19:01.117Z,21.43
2019-02-21T10:21:31.454Z,23.27
2019-02-21T10:24:01.844Z,23.47
2019-02-21T10:26:32.502Z,23.15
2019-02-21T10:29:03.115Z,22.87
2019-02-21T10:31:33.473Z,22.20
2019-02-21T10:34:03.901Z,21.20
2019-02-21T10:36:34.274Z,21.70
2019-02-21T10:39:05.845Z,21.70
2019-02-21T10:41:36.610Z,21.37
2019-02-21T10:44:06.951Z,21.27
2019-02-21T10:46:37.587Z,23.47
2019-02-21T10:49:07.974Z,22.17
2019-02-21T10:51:38.321Z,20.40
2019-02-21T10:54:08.711Z,21.27
2019-02-21T10:56:39.125Z,21.00
2019-02-21T10:59:09.761Z,18.83
2019-02-21T11:01:40.426Z,21.97
2019-02-21T11:04:11.035Z,20.20
2019-02-21T11:06:41.625Z,20.10
2019-02-21T11:09:19.618Z,19.37
2019-02-21T11:11:50.357Z,20.00
2019-02-21T11:14:21.299Z,19.70
2019-02-21T11:16:51.959Z,21.20
2019-02-21T11:19:22.336Z,20.00
2019-02-21T11:21:53.000Z,21.67
2019-02-21T11:24:23.619Z,19.03
2019-02-21T11:26:54.298Z,18.10
2019-02-21T11:29:24.927Z,18.30
2019-02-21T11:31:55.563Z,18.03
2019-02-21T11:34:26.267Z,18.60
2019-02-21T11:36:56.902Z,16.67
2019-02-21T11:39:27.243Z,17.30
2019-02-21T11:41:58.244Z,14.00
2019-02-21T11:44:28.899Z,16.70
2019-02-21T11:46:59.247Z,15.60
2019-02-21T11:49:29.937Z,15.87
2019-02-21T11:52:09.817Z,15.63
2019-02-21T11:54:32.329Z,14.90
2019-02-21T11:57:03.145Z,15.43
2019-02-21T11:59:33.838Z,15.70
2019-02-21T12:02:04.439Z,15.17
2019-02-21T12:04:35.104Z,13.40
2019-02-21T12:07:05.471Z,14.57
2019-02-21T12:09:36.078Z,13.50
2019-02-21T12:12:06.492Z,13.33
2019-02-21T12:14:36.832Z,12.83
2019-02-21T12:17:07.226Z,13.27
2019-02-21T12:19:37.631Z,13.10
2019-02-21T12:22:08.259Z,14.07
2019-02-21T12:24:39.104Z,13.90
2019-02-21T12:27:09.792Z,13.13
2019-02-21T12:29:40.418Z,13.10
2019-02-21T12:32:11.042Z,12.87
2019-02-21T12:34:41.681Z,12.20
2019-02-21T12:37:12.580Z,12.57
2019-02-21T12:39:43.006Z,12.97
2019-02-21T12:42:13.687Z,12.90
2019-02-21T12:44:44.388Z,13.20
2019-02-21T12:47:14.737Z,13.80
2019-02-21T12:49:45.109Z,12.67
2019-02-21T12:52:15.875Z,12.70
2019-02-21T12:54:46.224Z,12.50
2019-02-21T12:57:16.590Z,13.00
2019-02-21T12:59:47.280Z,12.20
2019-02-21T13:02:17.931Z,11.50
2019-02-21T13:04:48.360Z,13.53
2019-02-21T13:07:19.011Z,12.00
2019-02-21T13:09:49.677Z,13.47
2019-02-21T13:12:20.044Z,13.73
2019-02-21T13:14:50.730Z,11.83
2019-02-21T13:17:21.367Z,13.63
2019-02-21T13:19:52.099Z,12.70
2019-02-21T13:22:22.490Z,11.90
2019-02-21T13:24:53.128Z,11.80
2019-02-21T13:27:23.723Z,12.50
2019-02-21T13:29:54.743Z,12.60
2019-02-21T13:32:25.714Z,12.70
2019-02-21T13:34:56.119Z,12.13
2019-02-21T13:37:29.063Z,11.70
2019-02-21T13:40:00.507Z,11.70
2019-02-21T13:42:30.866Z,12.17
2019-02-21T13:45:01.514Z,11.77
2019-02-21T13:47:31.844Z,12.63
2019-02-21T13:50:02.261Z,10.97
2019-02-21T13:52:32.611Z,13.20
2019-02-21T13:55:03.292Z,12.80
2019-02-21T13:57:33.660Z,11.40
2019-02-21T14:00:04.829Z,12.90
2019-02-21T14:02:35.517Z,11.87
2019-02-21T14:05:07.864Z,9.80
2019-02-21T14:07:38.242Z,11.93
2019-02-21T14:10:14.073Z,10.77
2019-02-21T14:12:44.702Z,11.10
2019-02-21T14:15:30.400Z,11.57
2019-02-21T14:18:00.802Z,11.20
2019-02-21T14:20:31.554Z,11.40
2019-02-21T14:23:02.328Z,12.47
2019-02-21T14:25:40.291Z,11.13
2019-02-21T14:28:05.152Z,11.03
2019-02-21T14:30:35.492Z,8.53
2019-02-21T14:33:05.833Z,9.93
2019-02-21T14:35:36.195Z,10.20
2019-02-21T14:38:06.852Z,9.00
2019-02-21T14:40:37.577Z,9.47
2019-02-21T14:43:08.306Z,8.23
2019-02-21T14:45:38.649Z,7.93
2019-02-21T14:48:09.612Z,9.00
2019-02-21T14:50:39.968Z,8.10
2019-02-21T14:53:10.331Z,8.00
2019-02-21T14:55:41.028Z,9.03
2019-02-21T14:58:11.963Z,8.67
2019-02-21T15:00:42.324Z,9.37
2019-02-21T15:03:21.453Z,10.50
2019-02-21T15:05:45.064Z,9.43
2019-02-21T15:08:21.951Z,10.57
2019-02-21T15:10:52.671Z,9.53
2019-02-21T15:13:25.611Z,9.63
2019-02-21T15:15:55.913Z,9.67
2019-02-21T15:18:26.539Z,9.20
2019-02-21T15:20:57.462Z,9.80
2019-02-21T15:23:27.864Z,11.53
2019-02-21T15:25:58.242Z,10.70
2019-02-21T15:28:28.889Z,10.13
2019-02-21T15:30:59.543Z,10.33
2019-02-21T15:33:29.939Z,10.40
2019-02-21T15:36:00.288Z,10.90
2019-02-21T15:38:30.902Z,9.80
2019-02-21T15:41:01.907Z,10.80
2019-02-21T15:43:32.348Z,10.77
2019-02-21T15:46:03.116Z,10.60
2019-02-21T15:48:33.506Z,11.50
2019-02-21T15:51:04.175Z,10.10
2019-02-21T15:53:35.071Z,10.57
2019-02-21T15:56:05.434Z,11.60
2019-02-21T15:58:36.090Z,10.67
2019-02-21T16:01:06.459Z,10.80
2019-02-21T16:03:36.803Z,10.33
2019-02-21T16:06:07.446Z,10.20
2019-02-21T16:08:37.853Z,10.87
2019-02-21T16:11:08.235Z,10.83
2019-02-21T16:13:39.015Z,12.97
2019-02-21T16:16:10.242Z,11.00
2019-02-21T16:18:40.866Z,11.87
2019-02-21T16:21:11.363Z,12.27
2019-02-21T16:23:42.001Z,11.80
2019-02-21T16:26:12.636Z,12.20
2019-02-21T16:28:43.311Z,11.90
2019-02-21T16:31:13.647Z,12.07
2019-02-21T16:33:44.068Z,10.70
2019-02-21T16:36:14.752Z,12.23
2019-02-21T16:38:45.162Z,11.30
2019-02-21T16:41:16.660Z,11.30
2019-02-21T16:43:47.023Z,11.30
2019-02-21T16:46:17.666Z,12.10
2019-02-21T16:48:48.305Z,12.00
2019-02-21T16:51:18.698Z,12.73
2019-02-21T16:53:49.038Z,13.20
2019-02-21T16:56:19.438Z,13.53
2019-02-21T16:58:49.784Z,13.60
2019-02-21T17:01:20.159Z,13.63
2019-02-21T17:03:50.525Z,14.10
2019-02-21T17:06:21.258Z,14.70
2019-02-21T17:08:51.625Z,13.57
2019-02-21T17:11:22.008Z,13.57
2019-02-21T17:13:52.678Z,13.87
2019-02-21T17:16:23.051Z,14.30
2019-02-21T17:18:55.993Z,15.47
2019-02-21T17:21:25.741Z,15.30
2019-02-21T17:23:56.664Z,14.63
2019-02-21T17:26:27.030Z,13.80
2019-02-21T17:28:57.440Z,14.77
2019-02-21T17:31:28.130Z,14.53
2019-02-21T17:33:58.778Z,14.63
2019-02-21T17:36:29.314Z,14.43
2019-02-21T17:38:59.929Z,15.30
2019-02-21T17:41:30.350Z,15.87
2019-02-21T17:44:00.734Z,15.50
2019-02-21T17:46:31.370Z,15.50
2019-02-21T17:49:02.036Z,15.47
2019-02-21T17:51:32.440Z,16.47
2019-02-21T17:54:02.832Z,16.00
2019-02-21T17:56:33.442Z,17.90
2019-02-21T17:59:04.229Z,16.70
2019-02-21T18:01:34.604Z,16.47
2019-02-21T18:04:05.002Z,16.10
2019-02-21T18:06:35.950Z,15.60
2019-02-21T18:09:06.909Z,14.93
2019-02-21T18:11:37.822Z,14.60
2019-02-21T18:14:08.570Z,14.70
2019-02-21T18:16:38.929Z,15.30
2019-02-21T18:19:09.572Z,15.50
2019-02-21T18:21:39.930Z,15.10
2019-02-21T18:24:11.117Z,15.63
2019-02-21T18:26:41.485Z,15.90
2019-02-21T18:29:12.476Z,17.00
2019-02-21T18:31:42.866Z,17.23
2019-02-21T18:34:13.637Z,16.75
2019-02-21T18:36:44.407Z,17.20
2019-02-21T18:39:15.225Z,18.60
2019-02-21T18:41:45.652Z,22.40
2019-02-21T18:44:16.517Z,20.70
2019-02-21T18:46:46.892Z,18.93
2019-02-21T18:49:17.529Z,21.97
2019-02-21T18:51:48.216Z,19.97
2019-02-21T18:54:18.892Z,22.10
2019-02-21T18:56:49.519Z,20.70
2019-02-21T18:59:28.965Z,21.07
2019-02-21T19:01:51.917Z,22.00
2019-02-21T19:04:22.878Z,22.40
2019-02-21T19:06:53.541Z,24.30
2019-02-21T19:09:23.922Z,21.63
2019-02-21T19:11:54.283Z,26.40
2019-02-21T19:14:24.666Z,23.55
2019-02-21T19:16:55.285Z,24.00
2019-02-21T19:19:25.919Z,27.43
2019-02-21T19:21:56.687Z,25.57
2019-02-21T19:24:27.099Z,25.15
2019-02-21T19:26:57.739Z,27.47
2019-02-21T19:29:28.677Z,26.70
2019-02-21T19:31:59.101Z,29.23
2019-02-21T19:34:29.738Z,30.60
2019-02-21T19:37:00.449Z,30.17
2019-02-21T19:39:31.113Z,28.45
2019-02-21T19:42:01.783Z,29.02
2019-02-21T19:44:32.131Z,27.30
2019-02-21T19:47:02.809Z,27.85
2019-02-21T19:49:33.165Z,27.23
2019-02-21T19:52:03.800Z,27.50
2019-02-21T19:54:34.532Z,29.35
2019-02-21T19:57:05.362Z,28.98
2019-02-21T19:59:35.696Z,29.30
2019-02-21T20:02:06.037Z,29.57
2019-02-21T20:04:36.416Z,29.37
2019-02-21T20:07:07.363Z,30.75
2019-02-21T20:09:37.718Z,31.52
2019-02-21T20:12:08.130Z,31.42
2019-02-21T20:14:38.516Z,31.23
2019-02-21T20:17:08.952Z,29.92
2019-02-21T20:19:39.598Z,30.65
2019-02-21T20:22:09.941Z,31.40
2019-02-21T20:24:40.345Z,31.75
2019-02-21T20:27:10.666Z,32.42
2019-02-21T20:29:41.098Z,29.77
2019-02-21T20:32:11.749Z,30.92
2019-02-21T20:34:42.116Z,30.52
2019-02-21T20:37:12.477Z,34.20
2019-02-21T20:39:42.890Z,32.65
2019-02-21T20:42:13.516Z,34.10
2019-02-21T20:44:43.851Z,33.58
2019-02-21T20:47:14.487Z,33.48
2019-02-21T20:49:45.077Z,34.78
2019-02-21T20:52:15.472Z,35.70
2019-02-21T20:54:46.356Z,36.08
2019-02-21T20:57:16.720Z,35.13
2019-02-21T20:59:47.083Z,37.08
2019-02-21T21:02:17.728Z,38.98
2019-02-21T21:04:48.095Z,38.78
2019-02-21T21:07:25.075Z,38.05
2019-02-21T21:09:50.872Z,39.00
2019-02-21T21:12:21.528Z,37.85
2019-02-21T21:14:52.028Z,37.10
2019-02-21T21:17:22.361Z,39.85
2019-02-21T21:19:52.993Z,37.93
2019-02-21T21:22:23.475Z,36.57
2019-02-21T21:24:53.862Z,36.83
2019-02-21T21:27:24.783Z,35.07
2019-02-21T21:29:55.441Z,32.67
2019-02-21T21:32:25.802Z,34.33
2019-02-21T21:34:56.455Z,34.77
2019-02-21T21:37:26.800Z,31.30
2019-02-21T21:39:58.054Z,31.97
2019-02-21T21:42:28.418Z,33.40
2019-02-21T21:44:58.809Z,34.53
2019-02-21T21:47:29.196Z,34.13
2019-02-21T21:49:59.571Z,36.90
2019-02-21T21:52:30.218Z,36.73
2019-02-21T21:55:00.625Z,38.23
2019-02-21T21:57:30.941Z,40.88
2019-02-21T22:00:01.584Z,45.90
2019-02-21T22:02:32.486Z,44.10
2019-02-21T22:05:02.878Z,41.60
2019-02-21T22:07:33.231Z,43.00
2019-02-21T22:10:04.903Z,40.78
2019-02-21T22:12:35.542Z,38.45
2019-02-21T22:15:13.211Z,37.80
2019-02-21T22:17:43.579Z,38.48
2019-02-21T22:20:13.935Z,36.45
2019-02-21T22:22:44.349Z,36.75
2019-02-21T22:25:15.235Z,34.92
2019-02-21T22:27:45.609Z,33.25
2019-02-21T22:30:20.779Z,33.38
2019-02-21T22:32:51.111Z,33.65
2019-02-21T22:35:23.288Z,33.70
2019-02-21T22:37:53.650Z,30.60
2019-02-21T22:40:24.042Z,33.95
2019-02-21T22:42:54.724Z,32.78
2019-02-21T22:45:25.333Z,31.40
2019-02-21T22:47:55.671Z,34.63
2019-02-21T22:50:26.968Z,33.53
2019-02-21T22:52:57.370Z,33.60
2019-02-21T22:55:27.736Z,35.00
2019-02-21T22:57:58.414Z,32.80
2019-02-21T23:00:58.781Z,33.78
2019-02-21T23:03:34.357Z,33.73
2019-02-21T23:06:42.372Z,32.95
2019-02-21T23:09:14.694Z,33.13
2019-02-21T23:11:45.435Z,30.60
2019-02-21T23:14:15.775Z,32.80
2019-02-21T23:16:46.112Z,32.58
2019-02-21T23:19:16.473Z,35.92
2019-02-21T23:21:46.838Z,34.75
2019-02-21T23:24:17.888Z,33.08
2019-02-21T23:26:48.315Z,33.78
2019-02-21T23:29:18.675Z,32.20
2019-02-21T23:31:49.332Z,31.85
2019-02-21T23:34:24.262Z,30.62
2019-02-21T23:36:54.626Z,28.83
2019-02-21T23:39:25.430Z,26.45
2019-02-21T23:41:55.781Z,25.05
2019-02-21T23:44:26.143Z,22.00
2019-02-21T23:46:56.772Z,19.92
2019-02-21T23:49:27.131Z,19.20
2019-02-21T23:51:57.775Z,18.07
2019-02-21T23:54:28.139Z,17.30
2019-02-21T23:56:58.819Z,18.25
2019-02-21T23:59:29.181Z,19.25
